Airfield :
LOGIN :

Register | Disclaimer

   EN    FR    IT 

 










Legend :    VFR   Marginal VFR   IFR   Intensive IFR   Very Intensive IFR
Visi :
Ceiling :
>= 8 km
>= 3000ft
5 to 8 km
1000 to 3000 ft
1500m to 5 km
500 to 1000 ft
800 to 1500m
200 to 500 ft
< 800m
< 200 ft
Symbols :   Thunderstorms  Fog  Heavy snow  Heavy precipitations  Wind > 20 kt
SIGMETs :     Misc.  Thunderstorms  Icing  Turbulence  Mountain Waves  Volcanic Ashes






- Airport Elevation : 70 ft
- IATA code : LEI


LEAM - Almeria

CURRENT METAR :
  • 101800Z 19004KT 160V240 9999 FEW030 17/15 Q1012

EXPIRED METARs :
  • 101730Z 16005KT 130V230 9999 FEW030 17/15 Q1012
  • 101700Z 16006KT 140V200 9999 SCT030 18/14 Q1012
  • 101630Z 16007KT 9999 FEW025 18/15 Q1013
  • 101600Z 17006KT 150V210 9999 FEW025 19/14 Q1013

TAF TAF LEAM
Valid from the 10 at 15:00 until the 11 at 15:00 UTC


101400Z 1015/1115 16005KT 9999 FEW020 SCT040 TX20/1115Z TN14/1106Z
PROB30
TEMPO 1022/1108 3000 BR BCFG BKN006



MET'MAP, your aeronautical weather chart ! - Copyright ORBIFLY December 2007 - Disclaimer

ORBIFLY MET'MAP TEAM :

Programming & Development : Alexandra Zaïnal
Concept & original design : Baudouin d'Aumeries
Assistance for programming : Marc-Olivier Méhu
Technical & hardware support : Manuel Goepfert

Contact : metmap@orbifly.com




SOURCES & CREDITS :

   NOAA